Time;durP1;ratioP1;P1;durP2;ratioP2;P2;SDS_P1;SDS_P2;PMS_P1;PMS_P2;Temp;Humidity;BMP_temperature;BMP_pressure;BME280_temperature;BME280_humidity;BME280_pressure;Samples;Min_cycle;Max_cycle;Signal;HPM_P1;HPM_P2
2022/09/18 00:01:25;;;;;;;6.40;0.98;;;;;;;7.52;100.00;100361.88;5048260;28;20041;-84
2022/09/18 00:03:59;;;;;;;6.97;0.90;;;;;;;7.57;100.00;100366.25;5008535;28;20049;-84
2022/09/18 00:06:30;;;;;;;11.68;2.80;;;;;;;7.58;100.00;100367.09;5046454;28;20044;-85
2022/09/18 00:08:59;;;;;;;1.98;1.08;;;;;;;7.54;100.00;100360.16;5026057;28;20072;-85
2022/09/18 00:11:30;;;;;;;9.50;1.40;;;;;;;7.51;100.00;100361.03;5039482;28;20049;-84
2022/09/18 00:13:57;;;;;;;3.65;1.00;;;;;;;7.53;100.00;100359.28;5028304;28;20041;-85
2022/09/18 00:16:26;;;;;;;6.53;2.13;;;;;;;7.60;100.00;100363.63;5024515;28;20049;-85
2022/09/18 00:18:53;;;;;;;4.38;0.80;;;;;;;7.72;100.00;100361.88;5034306;28;20566;-85
2022/09/18 00:21:25;;;;;;;8.35;1.92;;;;;;;7.83;100.00;100364.44;5019210;28;20057;-84
2022/09/18 00:23:55;;;;;;;8.70;1.05;;;;;;;7.84;100.00;100361.84;5031113;28;20061;-85
2022/09/18 00:26:24;;;;;;;13.15;2.63;;;;;;;7.90;100.00;100364.44;5019496;28;20480;-85
2022/09/18 00:28:52;;;;;;;12.05;1.33;;;;;;;7.91;100.00;100367.88;5034540;28;20099;-85
2022/09/18 00:31:24;;;;;;;9.95;1.73;;;;;;;7.88;100.00;100368.75;5041460;28;20049;-85
2022/09/18 00:33:52;;;;;;;11.45;1.73;;;;;;;7.93;100.00;100371.38;5027633;28;20079;-85
2022/09/18 00:36:19;;;;;;;9.07;1.30;;;;;;;8.04;100.00;100376.53;5019761;28;20063;-85
2022/09/18 00:38:48;;;;;;;13.75;2.17;;;;;;;8.16;100.00;100373.03;5026471;28;20047;-85
2022/09/18 00:41:28;;;;;;;6.70;1.20;;;;;;;8.23;100.00;100372.16;5034056;28;20055;-85
2022/09/18 00:44:29;;;;;;;8.18;1.33;;;;;;;8.31;100.00;100369.50;5022901;28;20049;-84
2022/09/18 00:47:11;;;;;;;7.72;1.15;;;;;;;8.41;100.00;100373.81;5016596;28;20056;-85
2022/09/18 00:49:48;;;;;;;4.28;0.90;;;;;;;8.51;100.00;100378.13;5047336;28;20052;-85
2022/09/18 00:52:18;;;;;;;2.03;0.90;;;;;;;8.56;100.00;100376.34;5004808;28;20069;-85
2022/09/18 00:54:50;;;;;;;8.13;1.17;;;;;;;8.60;100.00;100372.88;5023796;28;20044;-84
2022/09/18 00:57:23;;;;;;;1.77;0.77;;;;;;;8.65;100.00;100370.22;5028794;28;20123;-85
2022/09/18 00:59:52;;;;;;;5.53;1.50;;;;;;;8.69;100.00;100374.56;5033779;28;20051;-85
2022/09/18 01:02:19;;;;;;;4.03;1.40;;;;;;;8.70;100.00;100381.50;5028112;28;20052;-84
2022/09/18 01:04:47;;;;;;;7.00;1.00;;;;;;;8.72;100.00;100377.16;5005753;28;20052;-84
2022/09/18 01:07:43;;;;;;;4.30;1.05;;;;;;;8.73;100.00;100372.78;5024156;28;20049;-84
2022/09/18 01:10:48;;;;;;;3.45;1.33;;;;;;;8.77;100.00;100380.63;5043967;28;20132;-84
2022/09/18 01:13:57;;;;;;;3.80;1.23;;;;;;;8.78;100.00;100384.94;5030663;28;20049;-84
2022/09/18 01:16:49;;;;;;;6.47;0.88;;;;;;;8.78;100.00;100379.72;5034581;28;20692;-84
2022/09/18 01:19:37;;;;;;;7.85;2.38;;;;;;;8.76;100.00;100385.81;5027698;28;20061;-84
2022/09/18 01:22:58;;;;;;;4.85;1.00;;;;;;;8.75;100.00;100384.97;5028823;28;20041;-84
2022/09/18 01:25:57;;;;;;;6.13;2.20;;;;;;;8.76;100.00;100372.78;5009759;28;21262;-84
2022/09/18 01:28:44;;;;;;;5.93;1.05;;;;;;;8.85;100.00;100375.34;5030955;28;20052;-86
2022/09/18 01:31:22;;;;;;;5.68;1.10;;;;;;;8.81;100.00;100376.22;5018455;28;20045;-84
2022/09/18 01:34:00;;;;;;;11.02;1.33;;;;;;;8.80;100.00;100379.72;5011953;28;20041;-84
2022/09/18 01:36:33;;;;;;;7.18;0.98;;;;;;;8.81;100.00;100376.22;5024829;28;20044;-85
2022/09/18 01:39:32;;;;;;;4.30;1.20;;;;;;;8.83;100.00;100379.69;5025881;28;20840;-83
2022/09/18 01:42:00;;;;;;;2.40;0.88;;;;;;;8.78;100.00;100387.53;5009579;28;20057;-84
2022/09/18 01:44:31;;;;;;;4.50;1.30;;;;;;;8.79;100.00;100383.22;5024037;28;20045;-84
2022/09/18 01:47:01;;;;;;;11.90;0.82;;;;;;;8.67;100.00;100383.25;5030281;28;20056;-83
2022/09/18 01:49:34;;;;;;;6.90;1.15;;;;;;;8.50;100.00;100389.44;5024799;28;20061;-84
2022/09/18 01:52:08;;;;;;;5.88;1.00;;;;;;;8.32;100.00;100389.47;5010044;28;20048;-85
2022/09/18 01:54:42;;;;;;;11.38;1.35;;;;;;;8.15;100.00;100379.09;5007973;28;20053;-84
2022/09/18 01:57:25;;;;;;;3.90;0.98;;;;;;;8.06;100.00;100388.72;5042704;28;20079;-84
2022/09/18 02:00:04;;;;;;;5.15;0.68;;;;;;;8.09;100.00;100388.69;5029916;28;20093;-84
2022/09/18 02:02:42;;;;;;;7.00;0.82;;;;;;;8.08;100.00;100393.91;5026252;28;20055;-84
2022/09/18 02:05:16;;;;;;;6.00;1.27;;;;;;;7.94;100.00;100392.22;5010288;28;20068;-84
2022/09/18 02:08:01;;;;;;;9.15;1.42;;;;;;;7.89;100.00;100387.91;5000126;28;20496;-85
2022/09/18 02:10:31;;;;;;;2.97;1.92;;;;;;;7.84;100.00;100390.50;5023775;28;20049;-84
2022/09/18 02:13:05;;;;;;;7.90;1.27;;;;;;;7.83;100.00;100385.28;5019063;28;20056;-84
2022/09/18 02:15:40;;;;;;;4.50;0.88;;;;;;;7.82;100.00;100383.56;5045480;28;20053;-84
2022/09/18 02:18:16;;;;;;;7.57;1.00;;;;;;;7.79;100.00;100387.03;5026145;28;20044;-85
2022/09/18 02:20:44;;;;;;;8.30;2.47;;;;;;;7.72;100.00;100383.56;5024881;28;21247;-84
2022/09/18 02:23:15;;;;;;;7.35;1.05;;;;;;;7.62;100.00;100387.06;5018369;28;20052;-84
2022/09/18 02:25:52;;;;;;;8.05;1.55;;;;;;;7.62;100.00;100384.44;5010971;28;20498;-84
2022/09/18 02:28:24;;;;;;;5.85;1.58;;;;;;;7.62;100.00;100385.31;5009037;28;20448;-85
2022/09/18 02:30:51;;;;;;;4.32;1.20;;;;;;;7.58;100.00;100383.59;5028285;28;20067;-85
2022/09/18 02:33:37;;;;;;;8.82;1.70;;;;;;;7.60;100.00;100381.84;5021834;28;20075;-85
2022/09/18 02:36:44;;;;;;;7.63;1.88;;;;;;;7.52;100.00;100369.69;5008134;28;20172;-85
2022/09/18 02:39:46;;;;;;;5.22;1.33;;;;;;;7.69;100.00;100370.56;5011689;28;20045;-84
2022/09/18 02:42:46;;;;;;;4.32;0.85;;;;;;;7.78;100.00;100364.44;5042682;28;20052;-85
2022/09/18 02:45:44;;;;;;;7.43;0.85;;;;;;;7.89;100.00;100360.09;5020206;28;20046;-85
2022/09/18 02:49:03;;;;;;;4.82;0.88;;;;;;;7.88;100.00;100360.94;5016772;28;20052;-85
2022/09/18 02:52:26;;;;;;;4.97;1.55;;;;;;;7.95;100.00;100365.28;5031497;28;20426;-85
2022/09/18 02:55:00;;;;;;;5.10;1.33;;;;;;;7.94;100.00;100363.53;5002669;28;20080;-85
2022/09/18 02:57:36;;;;;;;7.57;1.98;;;;;;;7.98;100.00;100361.81;5018405;28;20584;-85
2022/09/18 03:00:05;;;;;;;4.10;0.90;;;;;;;8.09;100.00;100367.81;5023936;28;20175;-84
2022/09/18 03:02:32;;;;;;;6.40;1.45;;;;;;;8.13;100.00;100362.63;5033257;28;20041;-85
2022/09/18 03:04:59;;;;;;;4.20;0.80;;;;;;;8.20;100.00;100359.09;5044982;28;20072;-85
2022/09/18 03:07:25;;;;;;;4.18;0.80;;;;;;;8.20;100.00;100365.22;5012199;28;20057;-85
2022/09/18 03:09:53;;;;;;;5.40;0.73;;;;;;;8.18;100.00;100366.09;5031526;28;20041;-85
2022/09/18 03:12:20;;;;;;;7.63;1.83;;;;;;;8.05;100.00;100363.50;5022688;28;20045;-85
2022/09/18 03:14:50;;;;;;;3.35;0.70;;;;;;;7.97;100.00;100361.81;5046363;28;20063;-85
2022/09/18 03:17:16;;;;;;;6.13;0.88;;;;;;;7.88;100.00;100360.94;5044112;28;20044;-85
2022/09/18 03:19:44;;;;;;;5.78;1.38;;;;;;;7.80;100.00;100364.47;5025963;28;20544;-84
2022/09/18 03:22:11;;;;;;;6.22;1.27;;;;;;;7.80;100.00;100369.69;5030501;28;20926;-84
2022/09/18 03:24:41;;;;;;;8.93;1.75;;;;;;;7.82;100.00;100362.72;5027302;28;20064;-84
2022/09/18 03:27:09;;;;;;;9.73;2.03;;;;;;;7.77;100.00;100365.34;5011393;28;20103;-84
2022/09/18 03:29:42;;;;;;;2.67;0.90;;;;;;;7.79;100.00;100355.75;5046100;28;20067;-84
2022/09/18 03:32:08;;;;;;;2.20;0.82;;;;;;;7.76;100.00;100364.44;5046576;28;20424;-84
2022/09/18 03:34:35;;;;;;;4.55;1.15;;;;;;;7.73;100.00;100355.75;5026237;28;20040;-84
2022/09/18 03:37:02;;;;;;;8.23;1.95;;;;;;;7.65;100.00;100357.53;5043588;28;20777;-84
2022/09/18 03:39:29;;;;;;;4.50;1.23;;;;;;;7.60;100.00;100363.63;5044036;28;20040;-84
2022/09/18 03:41:56;;;;;;;14.52;1.30;;;;;;;7.62;100.00;100361.00;5031257;28;20041;-84
2022/09/18 03:44:22;;;;;;;18.60;1.33;;;;;;;7.60;100.00;100366.22;5025734;28;20071;-83
2022/09/18 03:46:49;;;;;;;12.63;1.27;;;;;;;7.55;100.00;100369.72;5038931;28;20049;-84
2022/09/18 03:49:15;;;;;;;3.78;1.73;;;;;;;7.57;100.00;100371.44;5028858;28;20140;-84
2022/09/18 03:51:42;;;;;;;8.27;0.88;;;;;;;7.61;100.00;100359.25;5011838;28;20406;-83
2022/09/18 03:54:09;;;;;;;4.85;1.30;;;;;;;7.56;100.00;100368.81;5011145;28;20057;-83
2022/09/18 03:56:37;;;;;;;4.93;2.03;;;;;;;7.66;100.00;100374.91;5025007;28;20111;-84
2022/09/18 03:59:04;;;;;;;7.38;1.33;;;;;;;7.64;100.00;100368.81;5045808;28;20397;-84
2022/09/18 04:01:31;;;;;;;7.82;1.23;;;;;;;7.59;100.00;100368.84;5017441;28;20053;-84
2022/09/18 04:03:58;;;;;;;7.13;0.90;;;;;;;7.59;100.00;100363.63;5021992;28;20064;-85
2022/09/18 04:06:25;;;;;;;7.65;2.03;;;;;;;7.54;100.00;100366.22;5030104;28;20100;-84
2022/09/18 04:08:53;;;;;;;6.70;0.95;;;;;;;7.59;100.00;100364.47;5044875;28;20404;-84
2022/09/18 04:11:20;;;;;;;7.63;1.55;;;;;;;7.74;100.00;100367.94;5033084;28;20041;-84
2022/09/18 04:13:48;;;;;;;11.02;1.70;;;;;;;7.84;100.00;100360.97;5024368;28;20069;-84
2022/09/18 04:16:20;;;;;;;4.15;0.68;;;;;;;7.91;100.00;100365.28;5027870;28;20052;-84
2022/09/18 04:18:47;;;;;;;6.25;1.30;;;;;;;7.92;100.00;100364.41;5015685;28;20053;-84
2022/09/18 04:21:14;;;;;;;5.55;0.95;;;;;;;8.03;100.00;100360.06;5014558;28;20046;-84
2022/09/18 04:23:40;;;;;;;8.18;1.25;;;;;;;8.13;100.00;100367.84;5009231;28;20108;-84
2022/09/18 04:26:09;;;;;;;3.50;1.38;;;;;;;8.14;100.00;100365.22;5025784;28;20833;-84
2022/09/18 04:28:37;;;;;;;4.35;1.00;;;;;;;8.09;100.00;100366.97;5032441;28;20041;-84
2022/09/18 04:31:06;;;;;;;6.72;1.02;;;;;;;8.00;100.00;100361.78;5041018;28;20472;-83
2022/09/18 04:33:33;;;;;;;2.95;0.93;;;;;;;7.92;100.00;100360.06;5027553;28;20693;-84
2022/09/18 04:36:00;;;;;;;5.80;1.13;;;;;;;7.85;100.00;100355.75;5031877;28;20045;-84
2022/09/18 04:38:28;;;;;;;8.35;1.30;;;;;;;7.97;100.00;100367.03;5026227;28;20060;-84
2022/09/18 04:40:58;;;;;;;3.95;1.00;;;;;;;8.04;100.00;100363.50;5013085;28;20052;-84
2022/09/18 04:43:27;;;;;;;6.13;0.90;;;;;;;8.12;100.00;100364.34;5034070;28;20040;-84
2022/09/18 04:45:55;;;;;;;14.68;2.63;;;;;;;8.19;100.00;100366.06;5034237;28;20139;-84
2022/09/18 04:48:22;;;;;;;6.28;1.33;;;;;;;8.23;100.00;100370.41;5035275;28;20051;-84
2022/09/18 04:50:49;;;;;;;7.60;1.20;;;;;;;8.28;100.00;100373.00;5031334;28;20060;-84
2022/09/18 04:53:16;;;;;;;6.03;0.95;;;;;;;8.33;100.00;100375.56;5046804;28;20068;-83
2022/09/18 04:55:43;;;;;;;13.20;0.88;;;;;;;8.40;100.00;100369.47;5022079;28;20045;-84
2022/09/18 04:58:11;;;;;;;4.82;1.20;;;;;;;8.33;100.00;100376.47;5018462;28;20055;-84
2022/09/18 05:00:38;;;;;;;11.15;1.45;;;;;;;8.25;100.00;100373.88;5038531;28;20037;-84
2022/09/18 05:03:05;;;;;;;9.43;1.38;;;;;;;8.21;100.00;100364.34;5031895;28;20045;-84
2022/09/18 05:05:36;;;;;;;5.32;0.93;;;;;;;8.21;100.00;100369.56;5004697;28;20041;-85
2022/09/18 05:08:04;;;;;;;5.97;0.85;;;;;;;8.18;100.00;100363.47;5018053;28;20506;-85
2022/09/18 05:10:31;;;;;;;7.93;0.98;;;;;;;8.32;100.00;100360.78;5034904;28;20040;-84
2022/09/18 05:12:57;;;;;;;6.43;1.42;;;;;;;8.45;100.00;100365.09;5014500;28;20103;-84
2022/09/18 05:15:25;;;;;;;7.45;0.80;;;;;;;8.58;100.00;100352.91;5036541;28;20851;-84
2022/09/18 05:18:03;;;;;;;8.48;1.42;;;;;;;8.64;100.00;100354.59;5051923;28;20407;-84
2022/09/18 05:20:31;;;;;;;3.60;1.08;;;;;;;8.69;100.00;100351.06;5020047;28;20055;-84
2022/09/18 05:22:58;;;;;;;7.53;1.25;;;;;;;8.72;100.00;100363.22;5033561;28;20041;-84
2022/09/18 05:25:27;;;;;;;4.78;1.30;;;;;;;8.71;100.00;100364.97;5019282;28;20169;-84
2022/09/18 05:28:02;;;;;;;6.22;1.00;;;;;;;8.72;100.00;100358.00;5033659;28;20057;-83
2022/09/18 05:30:33;;;;;;;2.40;1.00;;;;;;;8.78;100.00;100352.75;5052807;28;20045;-84
2022/09/18 05:33:08;;;;;;;6.80;1.00;;;;;;;8.81;100.00;100350.13;5038745;28;20068;-85
2022/09/18 05:35:36;;;;;;;7.70;1.17;;;;;;;8.82;100.00;100356.22;5031009;28;20084;-84
2022/09/18 05:38:03;;;;;;;5.28;1.00;;;;;;;8.80;100.00;100357.97;5063297;28;20094;-83
2022/09/18 05:40:34;;;;;;;7.60;1.13;;;;;;;8.72;100.00;100352.78;5048144;28;20440;-85
2022/09/18 05:43:01;;;;;;;1.90;0.70;;;;;;;8.60;100.00;100361.56;5037838;28;20059;-85
2022/09/18 05:45:28;;;;;;;3.55;1.13;;;;;;;8.56;100.00;100365.06;5028436;28;20051;-84
2022/09/18 05:48:01;;;;;;;2.30;1.25;;;;;;;8.62;100.00;100359.81;5051794;28;20065;-85
2022/09/18 05:50:29;;;;;;;4.30;1.00;;;;;;;8.60;100.00;100362.44;5044525;28;20055;-85
2022/09/18 05:53:07;;;;;;;5.80;1.27;;;;;;;8.64;100.00;100349.38;5046310;28;20060;-85
2022/09/18 05:55:35;;;;;;;11.77;2.10;;;;;;;8.68;100.00;100361.50;5025699;28;20091;-83
2022/09/18 05:58:19;;;;;;;6.53;1.27;;;;;;;8.69;100.00;100363.25;5003673;28;20049;-84
2022/09/18 06:00:47;;;;;;;3.80;1.13;;;;;;;8.56;100.00;100357.25;5004616;28;20048;-82
2022/09/18 06:03:16;;;;;;;8.23;1.35;;;;;;;8.51;100.00;100367.69;5035087;28;20044;-84
2022/09/18 06:05:44;;;;;;;6.95;0.90;;;;;;;8.54;100.00;100357.25;5032542;28;20053;-84
2022/09/18 06:08:16;;;;;;;5.40;0.98;;;;;;;8.63;100.00;100368.50;5031270;28;20154;-84
2022/09/18 06:10:42;;;;;;;3.08;1.02;;;;;;;8.80;100.00;100363.19;5013991;28;20049;-84
2022/09/18 06:13:18;;;;;;;3.92;0.70;;;;;;;9.03;100.00;100371.72;5043977;28;20120;-83
2022/09/18 06:15:50;;;;;;;3.20;0.80;;;;;;;9.30;100.00;100363.72;5036635;28;20090;-83
2022/09/18 06:18:17;;;;;;;3.35;0.95;;;;;;;9.53;100.00;100363.47;5018898;28;20286;-83
2022/09/18 06:20:59;;;;;;;4.63;0.85;;;;;;;9.81;100.00;100363.22;5026563;28;20059;-83
2022/09/18 06:23:31;;;;;;;4.55;0.85;;;;;;;10.08;100.00;100360.31;5016513;28;20075;-84
2022/09/18 06:26:05;;;;;;;2.72;0.90;;;;;;;10.34;100.00;100361.75;5004875;28;21136;-83
2022/09/18 06:28:33;;;;;;;7.22;1.83;;;;;;;10.69;98.65;100364.78;5028633;28;20134;-83
2022/09/18 06:31:01;;;;;;;3.40;0.57;;;;;;;11.01;94.93;100355.59;5019659;28;20567;-82
2022/09/18 06:33:29;;;;;;;5.00;1.20;;;;;;;11.16;92.94;100357.97;5027343;28;20048;-83
2022/09/18 06:35:56;;;;;;;4.95;0.63;;;;;;;11.32;91.46;100349.88;5028844;28;20051;-84
2022/09/18 06:38:22;;;;;;;5.22;1.00;;;;;;;11.43;89.86;100350.53;5008877;28;20048;-83
2022/09/18 06:40:54;;;;;;;5.10;1.42;;;;;;;11.19;90.81;100355.31;5009708;28;20653;-84
2022/09/18 06:43:22;;;;;;;3.60;0.75;;;;;;;10.84;92.59;100361.09;5015502;28;20080;-84
2022/09/18 06:45:57;;;;;;;5.00;1.00;;;;;;;10.80;94.48;100360.28;5030699;28;20500;-83
2022/09/18 06:48:25;;;;;;;10.20;1.10;;;;;;;10.76;93.77;100358.59;5011717;28;20057;-83
2022/09/18 06:50:57;;;;;;;3.42;1.17;;;;;;;10.61;95.63;100359.66;5025711;28;20733;-83
2022/09/18 06:53:24;;;;;;;5.45;0.80;;;;;;;10.49;96.86;100359.84;5009771;28;20151;-83
2022/09/18 06:55:51;;;;;;;2.00;0.60;;;;;;;10.37;97.91;100366.09;5023973;28;20428;-83
2022/09/18 06:58:20;;;;;;;3.00;0.98;;;;;;;10.25;99.06;100365.31;5027445;28;20452;-84
2022/09/18 07:00:47;;;;;;;4.18;1.05;;;;;;;10.25;99.47;100360.09;5027881;28;20122;-84
2022/09/18 07:03:14;;;;;;;6.00;0.80;;;;;;;10.32;100.00;100362.63;5045125;28;20135;-83
2022/09/18 07:05:44;;;;;;;9.65;1.60;;;;;;;10.49;98.93;100365.91;5030020;28;20322;-85
2022/09/18 07:08:12;;;;;;;7.60;2.05;;;;;;;10.58;98.06;100357.94;5014352;28;20121;-83
2022/09/18 07:10:39;;;;;;;5.13;1.00;;;;;;;10.56;97.79;100357.13;5000303;28;20140;-84
2022/09/18 07:13:07;;;;;;;5.93;0.98;;;;;;;10.62;98.09;100360.53;5007996;28;20065;-83
2022/09/18 07:15:34;;;;;;;5.13;1.15;;;;;;;10.75;98.20;100367.31;5015644;28;20048;-83
2022/09/18 07:18:06;;;;;;;5.82;1.40;;;;;;;10.91;97.17;100362.72;5049262;28;20707;-82
2022/09/18 07:20:33;;;;;;;9.30;0.93;;;;;;;10.96;96.23;100344.34;5026994;28;20060;-84
2022/09/18 07:23:02;;;;;;;9.20;1.83;;;;;;;11.06;94.87;100359.00;5011322;28;20041;-83
2022/09/18 07:25:31;;;;;;;5.68;1.35;;;;;;;11.27;94.09;100351.72;5030375;28;20095;-84
2022/09/18 07:28:09;;;;;;;6.75;0.88;;;;;;;11.59;89.89;100357.25;5029717;28;20487;-84
2022/09/18 07:30:37;;;;;;;6.28;1.08;;;;;;;11.78;87.92;100351.66;5021132;28;20053;-83
2022/09/18 07:33:05;;;;;;;4.95;0.90;;;;;;;11.57;88.27;100351.16;5011809;28;20045;-83
2022/09/18 07:35:33;;;;;;;4.78;0.80;;;;;;;11.36;90.86;100348.94;5023496;28;20055;-83
2022/09/18 07:38:01;;;;;;;2.10;0.93;;;;;;;11.35;91.92;100357.69;5047627;28;20061;-83
2022/09/18 07:40:29;;;;;;;3.90;1.00;;;;;;;11.55;90.72;100350.34;5017291;28;20084;-84
2022/09/18 07:43:06;;;;;;;3.88;1.20;;;;;;;11.87;88.50;100351.47;5028373;28;20500;-82
2022/09/18 07:45:32;;;;;;;6.03;1.40;;;;;;;11.85;87.93;100349.78;5033263;28;21325;-83
2022/09/18 07:48:09;;;;;;;3.25;1.05;;;;;;;11.92;86.67;100336.50;5036218;28;20056;-83
2022/09/18 07:50:39;;;;;;;6.28;1.10;;;;;;;11.99;86.63;100352.19;5047124;28;20079;-82
2022/09/18 07:53:07;;;;;;;1.90;0.93;;;;;;;11.79;87.72;100352.53;5054196;22;20633;-83
2022/09/18 07:55:36;;;;;;;2.42;0.63;;;;;;;11.56;89.91;100352.06;5018044;28;20055;-83
2022/09/18 07:58:15;;;;;;;5.93;1.15;;;;;;;11.45;90.66;100343.53;5032362;28;20056;-83
2022/09/18 08:00:42;;;;;;;2.92;0.70;;;;;;;11.41;90.06;100354.97;5028861;28;20041;-83
2022/09/18 08:03:12;;;;;;;1.38;0.70;;;;;;;11.42;90.37;100348.81;5040493;28;20078;-86
2022/09/18 08:05:41;;;;;;;3.25;0.90;;;;;;;11.44;89.33;100364.53;5016262;28;20083;-84
2022/09/18 08:08:11;;;;;;;3.28;0.55;;;;;;;11.47;88.98;100353.97;5019581;28;20065;-85
2022/09/18 08:10:42;;;;;;;3.60;1.23;;;;;;;11.83;86.25;100360.31;5012568;28;20049;-83
2022/09/18 08:13:09;;;;;;;4.88;0.65;;;;;;;12.14;84.90;100356.28;5052733;23;20068;-85
2022/09/18 08:15:39;;;;;;;3.03;0.52;;;;;;;12.80;81.61;100353.97;5028298;23;20703;-85
2022/09/18 08:18:08;;;;;;;3.50;0.50;;;;;;;13.85;76.64;100346.97;4994861;28;20045;-84
2022/09/18 08:20:35;;;;;;;2.05;0.35;;;;;;;14.05;74.14;100356.06;4993408;28;20044;-85
2022/09/18 08:23:04;;;;;;;4.57;0.50;;;;;;;14.01;73.66;100352.66;5000827;23;20176;-85
2022/09/18 08:25:32;;;;;;;3.97;0.47;;;;;;;13.85;74.80;100360.13;5013476;28;20056;-84
2022/09/18 08:28:06;;;;;;;1.95;0.70;;;;;;;13.81;75.61;100353.22;5049633;28;20056;-84
2022/09/18 08:30:36;;;;;;;4.22;0.63;;;;;;;13.39;76.82;100346.44;5073128;22;20053;-85
2022/09/18 08:33:06;;;;;;;2.13;0.70;;;;;;;13.12;79.13;100347.94;5050641;22;20056;-85
2022/09/18 08:35:34;;;;;;;2.08;0.75;;;;;;;13.00;79.59;100356.16;5034366;28;20048;-84
2022/09/18 08:38:02;;;;;;;2.83;0.52;;;;;;;12.90;78.79;100351.06;5022790;28;20631;-85
2022/09/18 08:40:59;;;;;;;3.03;1.13;;;;;;;13.08;79.47;100354.19;5042114;28;20118;-84
2022/09/18 08:43:48;;;;;;;3.65;0.73;;;;;;;13.13;79.70;100352.31;5051479;22;20053;-84
2022/09/18 08:46:40;;;;;;;4.28;0.80;;;;;;;13.03;79.88;100343.78;5045874;28;20059;-86
2022/09/18 08:49:22;;;;;;;3.85;0.68;;;;;;;13.03;80.06;100350.81;5020205;28;20076;-85
2022/09/18 08:52:02;;;;;;;5.03;0.65;;;;;;;12.92;79.99;100353.69;5043140;28;20056;-83
2022/09/18 08:55:01;;;;;;;2.97;1.05;;;;;;;12.65;80.73;100348.16;5050880;22;20047;-86
2022/09/18 08:57:43;;;;;;;4.32;1.30;;;;;;;12.48;81.88;100351.16;5060234;28;20090;-85
2022/09/18 09:00:23;;;;;;;1.52;0.85;;;;;;;12.47;83.41;100359.06;5051716;28;20051;-86
2022/09/18 09:03:04;;;;;;;4.90;1.17;;;;;;;12.61;84.20;100345.66;5075819;28;20127;-83
2022/09/18 09:05:45;;;;;;;3.28;0.95;;;;;;;13.11;82.45;100340.97;5053851;28;20041;-85
2022/09/18 09:08:46;;;;;;;1.73;0.50;;;;;;;13.60;77.20;100336.25;5061569;28;20040;-83
2022/09/18 09:11:31;;;;;;;3.30;0.68;;;;;;;13.35;77.41;100341.25;5059045;28;20037;-83
2022/09/18 09:14:53;;;;;;;4.68;0.50;;;;;;;13.32;78.21;100342.19;5046643;28;20122;-82
2022/09/18 09:17:55;;;;;;;2.22;0.73;;;;;;;13.06;79.29;100333.22;5046178;28;20378;-82
2022/09/18 09:20:45;;;;;;;3.67;0.93;;;;;;;12.75;80.24;100330.44;5054124;28;20079;-84
2022/09/18 09:23:42;;;;;;;3.60;1.05;;;;;;;12.56;82.33;100314.25;5011833;28;20518;-84
2022/09/18 09:26:17;;;;;;;1.20;0.68;;;;;;;12.74;80.27;100323.47;5057763;28;20507;-85
2022/09/18 09:29:03;;;;;;;2.25;0.45;;;;;;;12.74;80.42;100326.09;5058238;28;20036;-84
2022/09/18 09:31:40;;;;;;;6.55;0.40;;;;;;;12.73;80.45;100322.56;5061734;28;20045;-83
2022/09/18 09:34:31;;;;;;;1.42;0.60;;;;;;;12.78;79.85;100326.88;5056668;28;20044;-83
2022/09/18 09:37:03;;;;;;;3.67;0.57;;;;;;;13.01;78.65;100334.19;5033581;28;20037;-85
2022/09/18 09:39:50;;;;;;;4.47;0.57;;;;;;;14.16;72.67;100318.94;5044689;28;20032;-85
2022/09/18 09:42:35;;;;;;;1.05;0.30;;;;;;;14.48;70.59;100325.00;5030988;28;20045;-83
2022/09/18 09:45:32;;;;;;;3.08;1.17;;;;;;;14.78;69.54;100325.00;5039047;28;20479;-85
2022/09/18 09:48:28;;;;;;;4.05;0.50;;;;;;;14.54;70.95;100324.81;5052204;28;20498;-84
2022/09/18 09:51:05;;;;;;;2.70;0.40;;;;;;;15.13;68.71;100315.94;5059778;28;20040;-84
2022/09/18 09:53:33;;;;;;;1.02;0.43;;;;;;;15.49;66.81;100310.31;5061066;28;20056;-84
2022/09/18 09:56:17;;;;;;;3.33;0.52;;;;;;;15.30;67.03;100304.81;5038012;28;20045;-84
2022/09/18 09:59:24;;;;;;;2.13;0.25;;;;;;;14.79;66.90;100298.59;5040836;28;20041;-85
2022/09/18 10:02:18;;;;;;;2.05;0.60;;;;;;;14.18;70.50;100294.31;5039442;28;20079;-85
2022/09/18 10:05:11;;;;;;;1.07;0.50;;;;;;;13.93;71.33;100296.75;5067904;28;20040;-83
2022/09/18 10:07:50;;;;;;;0.95;0.40;;;;;;;14.19;70.57;100303.03;5066024;28;20278;-84
2022/09/18 10:10:44;;;;;;;1.52;0.22;;;;;;;14.38;70.69;100313.91;5030085;28;20045;-84
2022/09/18 10:13:18;;;;;;;3.70;0.50;;;;;;;13.94;71.83;100301.13;5041975;28;20059;-84
2022/09/18 10:15:47;;;;;;;1.65;0.45;;;;;;;13.57;73.87;100304.75;5012849;23;20145;-83
2022/09/18 10:18:22;;;;;;;1.45;0.38;;;;;;;13.40;74.44;100305.22;5020319;28;20785;-85
2022/09/18 10:20:55;;;;;;;1.45;0.35;;;;;;;13.54;73.16;100302.22;4946895;28;20077;-84
2022/09/18 10:23:35;;;;;;;1.67;0.35;;;;;;;13.35;72.39;100297.44;4985201;28;20144;-84
2022/09/18 10:26:03;;;;;;;2.55;0.52;;;;;;;13.27;73.96;100302.03;4969303;28;20050;-86
2022/09/18 10:28:29;;;;;;;1.40;0.28;;;;;;;13.70;73.12;100290.41;5000680;28;20069;-87
2022/09/18 10:31:09;;;;;;;2.22;0.32;;;;;;;14.50;69.33;100302.13;4985220;28;20054;-84
2022/09/18 10:33:42;;;;;;;0.60;0.40;;;;;;;15.59;64.71;100287.13;4969996;28;20133;-85
2022/09/18 10:36:33;;;;;;;2.15;0.93;;;;;;;15.61;64.44;100297.63;4974693;28;20082;-83
2022/09/18 10:39:00;;;;;;;1.27;0.30;;;;;;;15.63;64.53;100293.13;4989436;28;20690;-84
2022/09/18 10:41:35;;;;;;;2.50;0.45;;;;;;;15.27;65.08;100293.53;4982435;28;20101;-84
2022/09/18 10:44:26;;;;;;;2.55;0.32;;;;;;;13.92;70.40;100302.94;5001916;28;20132;-83
2022/09/18 10:47:08;;;;;;;2.05;0.32;;;;;;;13.73;72.72;100300.81;4969222;28;20057;-83
2022/09/18 10:49:40;;;;;;;3.25;0.57;;;;;;;14.04;71.56;100296.44;4989587;28;20048;-84
2022/09/18 10:52:34;;;;;;;2.97;0.52;;;;;;;14.29;69.10;100303.63;4992516;28;20820;-84
2022/09/18 10:55:04;;;;;;;1.23;0.38;;;;;;;14.12;69.23;100297.09;4961961;28;20054;-85
2022/09/18 10:57:50;;;;;;;2.00;0.52;;;;;;;14.09;69.45;100291.06;4982396;28;20069;-85
2022/09/18 11:00:19;;;;;;;1.40;0.30;;;;;;;14.15;68.67;100293.53;4985573;28;20176;-83
2022/09/18 11:03:36;;;;;;;2.83;0.30;;;;;;;13.61;70.53;100293.28;5006977;28;20053;-85
2022/09/18 11:06:09;;;;;;;0.63;0.20;;;;;;;13.34;72.58;100302.75;4982012;28;20042;-85
2022/09/18 11:08:49;;;;;;;0.68;0.17;;;;;;;13.48;71.28;100279.59;4972014;28;20454;-86
2022/09/18 11:11:31;;;;;;;2.25;0.40;;;;;;;13.65;70.80;100262.47;4981757;28;20091;-86
2022/09/18 11:14:14;;;;;;;1.45;0.22;;;;;;;13.68;68.94;100286.94;4975944;28;20117;-85
2022/09/18 11:16:50;;;;;;;0.93;0.30;;;;;;;13.51;70.37;100276.03;5002712;28;20069;-84
2022/09/18 11:19:33;;;;;;;2.83;0.43;;;;;;;13.14;70.42;100266.44;4993345;28;20050;-83
2022/09/18 11:22:05;;;;;;;0.85;0.30;;;;;;;12.87;71.75;100274.97;4982575;28;20052;-85
2022/09/18 11:27:23;;;;;;;1.05;0.40;;;;;;;13.00;71.01;100270.28;4998056;28;20386;-84
2022/09/18 11:29:49;;;;;;;1.42;0.35;;;;;;;13.24;69.62;100263.56;4987901;28;20448;-85
2022/09/18 11:32:26;;;;;;;0.85;0.50;;;;;;;13.19;69.60;100280.31;4991063;28;20065;-83
2022/09/18 11:37:47;;;;;;;0.95;0.13;;;;;;;12.82;70.71;100274.22;4996905;28;20050;-84
2022/09/18 11:40:36;;;;;;;0.60;0.25;;;;;;;13.12;69.79;100266.47;4981814;28;20806;-84
2022/09/18 11:43:19;;;;;;;1.23;0.30;;;;;;;14.19;65.36;100261.78;5004770;28;20555;-83
2022/09/18 11:46:39;;;;;;;0.50;0.20;;;;;;;14.42;64.17;100270.75;4985046;28;20059;-84
2022/09/18 11:50:13;;;;;;;1.05;0.20;;;;;;;13.84;66.92;100265.47;5001244;28;20041;-85
2022/09/18 11:52:50;;;;;;;2.72;0.45;;;;;;;13.33;69.29;100270.31;4970589;28;20065;-84
2022/09/18 11:55:27;;;;;;;1.00;0.32;;;;;;;13.03;71.11;100248.31;4970525;28;20050;-84
2022/09/18 11:58:01;;;;;;;0.93;0.40;;;;;;;12.92;72.05;100261.75;4992271;28;20042;-86
2022/09/18 12:00:39;;;;;;;1.65;0.50;;;;;;;12.84;72.93;100256.69;4979144;28;20049;-85
2022/09/18 12:03:35;;;;;;;1.55;0.50;;;;;;;12.87;73.31;100268.88;4995710;28;20065;-85
2022/09/18 12:06:48;;;;;;;0.30;0.28;;;;;;;12.72;74.51;100270.97;5004267;28;20038;-84
2022/09/18 12:09:22;;;;;;;0.52;0.30;;;;;;;12.58;75.66;100268.66;4989954;28;20088;-83